Airfield :
LOGIN :

Register | Disclaimer

   EN    FR    IT 

 










Legend :    VFR   Marginal VFR   IFR   Intensive IFR   Very Intensive IFR
Visi :
Ceiling :
>= 8 km
>= 3000ft
5 to 8 km
1000 to 3000 ft
1500m to 5 km
500 to 1000 ft
800 to 1500m
200 to 500 ft
< 800m
< 200 ft
Symbols :   Thunderstorms  Fog  Heavy snow  Heavy precipitations  Wind > 20 kt
SIGMETs :     Misc.  Thunderstorms  Icing  Turbulence  Mountain Waves  Volcanic Ashes






- Airport Elevation : 219 ft
- IATA code : DNR


LFRD - Dinard

CURRENT METAR :
  • 080200Z AUTO 21018G29KT 9999 FEW017 OVC140 11/09 Q1010 TEMPO 3000 RA BKN004

EXPIRED METARs :
  • 080130Z AUTO 21016KT 9999 FEW015 BKN160 11/09 Q1011
  • 080100Z AUTO 21017KT 9999 BKN016 11/09 Q1011 TEMPO 3000 RA BKN004 BECMG 21018G30KT
  • 080030Z AUTO 21015KT 9999 FEW017 OVC240 10/08 Q1013 TEMPO 3000 RA BKN004 BECMG 21018G30KT
  • 080000Z AUTO 21013KT CAVOK 10/08 Q1013 TEMPO BKN008 BECMG 21018G30KT
  • 072330Z AUTO 21014KT 9999 FEW019 10/08 Q1014 TEMPO BKN008 BECMG 21018G30KT

TAF TAF LFRD
Valid from the 08 at 00:00 until the 09 at 00:00 UTC


072300Z 0800/0824 21014KT 9999 BKN015
BECMG 0800/0802 21018G30KT
TEMPO 0800/0808 BKN008
TEMPO 0802/0807 3000 RA BKN004
BECMG 0806/0808 27010KT SCT030
BECMG 0811/0814 25015G30KT
TEMPO 0816/0824 26020G45KT 3000 SHRA BKN015TCU SCT020CB
PROB40
TEMPO 0822/0824 TSRAGS BKN015CB
ATIS : +33 2 99 16 81 50



MET'MAP, your aeronautical weather chart ! - Copyright ORBIFLY December 2007 - Disclaimer

ORBIFLY MET'MAP TEAM :

Programming & Development : Alexandra Zaïnal
Concept & original design : Baudouin d'Aumeries
Assistance for programming : Marc-Olivier Méhu
Technical & hardware support : Manuel Goepfert

Contact : metmap@orbifly.com




SOURCES & CREDITS :

   NOAA